sensor_id;sensor_type;location;lat;lon;timestamp;P1;durP1;ratioP1;P2;durP2;ratioP2
51499;SDS011;39101;53.478;6.158;2023-08-12T00:00:50;22.08;;;11.77;;
51499;SDS011;39101;53.478;6.158;2023-08-12T00:03:16;19.00;;;11.57;;
51499;SDS011;39101;53.478;6.158;2023-08-12T00:05:42;17.17;;;11.02;;
51499;SDS011;39101;53.478;6.158;2023-08-12T00:08:08;15.88;;;10.18;;
51499;SDS011;39101;53.478;6.158;2023-08-12T00:10:34;14.77;;;9.98;;
51499;SDS011;39101;53.478;6.158;2023-08-12T00:13:00;18.48;;;10.18;;
51499;SDS011;39101;53.478;6.158;2023-08-12T00:15:25;15.48;;;10.15;;
51499;SDS011;39101;53.478;6.158;2023-08-12T00:17:52;21.30;;;10.55;;
51499;SDS011;39101;53.478;6.158;2023-08-12T00:20:17;15.32;;;10.73;;
51499;SDS011;39101;53.478;6.158;2023-08-12T00:22:43;11.93;;;9.15;;
51499;SDS011;39101;53.478;6.158;2023-08-12T00:25:09;20.17;;;10.75;;
51499;SDS011;39101;53.478;6.158;2023-08-12T00:27:35;16.73;;;9.77;;
51499;SDS011;39101;53.478;6.158;2023-08-12T00:30:02;12.85;;;9.93;;
51499;SDS011;39101;53.478;6.158;2023-08-12T00:32:29;17.38;;;10.75;;
51499;SDS011;39101;53.478;6.158;2023-08-12T00:34:55;14.48;;;10.10;;
51499;SDS011;39101;53.478;6.158;2023-08-12T00:37:21;15.70;;;10.20;;
51499;SDS011;39101;53.478;6.158;2023-08-12T00:39:46;18.65;;;10.43;;
51499;SDS011;39101;53.478;6.158;2023-08-12T00:42:12;15.50;;;9.77;;
51499;SDS011;39101;53.478;6.158;2023-08-12T00:44:37;15.15;;;10.38;;
51499;SDS011;39101;53.478;6.158;2023-08-12T00:47:03;16.42;;;10.25;;
51499;SDS011;39101;53.478;6.158;2023-08-12T00:49:30;18.33;;;10.75;;
51499;SDS011;39101;53.478;6.158;2023-08-12T00:51:57;16.00;;;9.77;;
51499;SDS011;39101;53.478;6.158;2023-08-12T00:54:24;14.38;;;9.82;;
51499;SDS011;39101;53.478;6.158;2023-08-12T00:56:51;17.02;;;9.90;;
51499;SDS011;39101;53.478;6.158;2023-08-12T00:59:18;13.05;;;9.07;;
51499;SDS011;39101;53.478;6.158;2023-08-12T01:01:45;19.30;;;10.30;;
51499;SDS011;39101;53.478;6.158;2023-08-12T01:04:12;13.60;;;8.98;;
51499;SDS011;39101;53.478;6.158;2023-08-12T01:06:38;16.98;;;9.52;;
51499;SDS011;39101;53.478;6.158;2023-08-12T01:09:04;13.57;;;9.20;;
51499;SDS011;39101;53.478;6.158;2023-08-12T01:17:02;13.55;;;7.85;;
51499;SDS011;39101;53.478;6.158;2023-08-12T01:19:35;16.08;;;8.25;;
51499;SDS011;39101;53.478;6.158;2023-08-12T01:22:03;12.90;;;8.18;;
51499;SDS011;39101;53.478;6.158;2023-08-12T01:24:37;12.13;;;7.70;;
51499;SDS011;39101;53.478;6.158;2023-08-12T01:27:08;12.98;;;7.50;;
51499;SDS011;39101;53.478;6.158;2023-08-12T01:29:35;12.85;;;8.18;;
51499;SDS011;39101;53.478;6.158;2023-08-12T01:34:56;13.90;;;7.63;;
51499;SDS011;39101;53.478;6.158;2023-08-12T01:37:34;12.68;;;6.82;;
51499;SDS011;39101;53.478;6.158;2023-08-12T01:40:02;14.50;;;7.93;;
51499;SDS011;39101;53.478;6.158;2023-08-12T01:42:30;11.27;;;7.30;;
51499;SDS011;39101;53.478;6.158;2023-08-12T01:44:57;14.15;;;6.82;;
51499;SDS011;39101;53.478;6.158;2023-08-12T01:47:24;11.20;;;6.65;;
51499;SDS011;39101;53.478;6.158;2023-08-12T01:49:50;15.15;;;6.25;;
51499;SDS011;39101;53.478;6.158;2023-08-12T01:52:15;14.90;;;7.00;;
51499;SDS011;39101;53.478;6.158;2023-08-12T01:54:41;13.30;;;6.93;;
51499;SDS011;39101;53.478;6.158;2023-08-12T01:57:07;14.13;;;6.80;;
51499;SDS011;39101;53.478;6.158;2023-08-12T01:59:34;11.52;;;6.70;;
51499;SDS011;39101;53.478;6.158;2023-08-12T02:02:00;9.40;;;6.63;;
51499;SDS011;39101;53.478;6.158;2023-08-12T02:04:26;13.73;;;6.88;;
51499;SDS011;39101;53.478;6.158;2023-08-12T02:06:53;9.23;;;6.00;;
51499;SDS011;39101;53.478;6.158;2023-08-12T02:09:19;14.13;;;6.85;;
51499;SDS011;39101;53.478;6.158;2023-08-12T02:11:45;11.30;;;7.30;;
51499;SDS011;39101;53.478;6.158;2023-08-12T02:14:11;10.82;;;6.53;;
51499;SDS011;39101;53.478;6.158;2023-08-12T02:16:37;11.88;;;5.75;;
51499;SDS011;39101;53.478;6.158;2023-08-12T02:19:03;10.20;;;6.15;;
51499;SDS011;39101;53.478;6.158;2023-08-12T02:21:28;9.05;;;6.20;;
51499;SDS011;39101;53.478;6.158;2023-08-12T02:23:54;10.15;;;6.00;;
51499;SDS011;39101;53.478;6.158;2023-08-12T02:26:20;10.35;;;6.43;;
51499;SDS011;39101;53.478;6.158;2023-08-12T02:28:45;12.75;;;6.28;;
51499;SDS011;39101;53.478;6.158;2023-08-12T02:31:11;11.88;;;6.45;;
51499;SDS011;39101;53.478;6.158;2023-08-12T02:33:37;10.82;;;6.63;;
51499;SDS011;39101;53.478;6.158;2023-08-12T02:36:02;11.77;;;6.38;;
51499;SDS011;39101;53.478;6.158;2023-08-12T02:38:28;10.10;;;6.28;;
51499;SDS011;39101;53.478;6.158;2023-08-12T02:40:54;13.45;;;6.32;;
51499;SDS011;39101;53.478;6.158;2023-08-12T02:43:20;11.38;;;6.82;;
51499;SDS011;39101;53.478;6.158;2023-08-12T02:45:47;12.90;;;6.28;;
51499;SDS011;39101;53.478;6.158;2023-08-12T02:48:12;10.43;;;5.63;;
51499;SDS011;39101;53.478;6.158;2023-08-12T02:50:38;10.57;;;5.65;;
51499;SDS011;39101;53.478;6.158;2023-08-12T02:53:05;12.18;;;6.10;;
51499;SDS011;39101;53.478;6.158;2023-08-12T02:55:31;11.88;;;6.20;;
51499;SDS011;39101;53.478;6.158;2023-08-12T02:57:57;12.15;;;6.43;;
51499;SDS011;39101;53.478;6.158;2023-08-12T03:00:26;10.00;;;6.15;;
51499;SDS011;39101;53.478;6.158;2023-08-12T03:02:52;14.48;;;6.63;;
51499;SDS011;39101;53.478;6.158;2023-08-12T03:05:18;12.10;;;6.38;;
51499;SDS011;39101;53.478;6.158;2023-08-12T03:07:44;13.00;;;7.10;;
51499;SDS011;39101;53.478;6.158;2023-08-12T03:10:10;9.15;;;6.25;;
51499;SDS011;39101;53.478;6.158;2023-08-12T03:12:36;21.17;;;7.65;;
51499;SDS011;39101;53.478;6.158;2023-08-12T03:15:02;11.32;;;6.70;;
51499;SDS011;39101;53.478;6.158;2023-08-12T03:17:28;12.15;;;7.15;;
51499;SDS011;39101;53.478;6.158;2023-08-12T03:19:54;18.52;;;7.70;;
51499;SDS011;39101;53.478;6.158;2023-08-12T03:22:20;10.10;;;6.60;;
51499;SDS011;39101;53.478;6.158;2023-08-12T03:24:46;11.80;;;6.97;;
51499;SDS011;39101;53.478;6.158;2023-08-12T03:27:12;11.35;;;6.85;;
51499;SDS011;39101;53.478;6.158;2023-08-12T03:29:38;14.18;;;6.85;;
51499;SDS011;39101;53.478;6.158;2023-08-12T03:32:04;11.73;;;7.15;;
51499;SDS011;39101;53.478;6.158;2023-08-12T03:34:29;11.05;;;6.70;;
51499;SDS011;39101;53.478;6.158;2023-08-12T03:36:55;13.07;;;7.68;;
51499;SDS011;39101;53.478;6.158;2023-08-12T03:39:21;14.25;;;7.70;;
51499;SDS011;39101;53.478;6.158;2023-08-12T03:41:46;11.18;;;7.70;;
51499;SDS011;39101;53.478;6.158;2023-08-12T03:44:12;10.27;;;7.30;;
51499;SDS011;39101;53.478;6.158;2023-08-12T03:46:38;12.02;;;7.78;;
51499;SDS011;39101;53.478;6.158;2023-08-12T03:49:03;13.23;;;7.70;;
51499;SDS011;39101;53.478;6.158;2023-08-12T03:51:29;9.27;;;7.25;;
51499;SDS011;39101;53.478;6.158;2023-08-12T03:53:55;13.85;;;8.77;;
51499;SDS011;39101;53.478;6.158;2023-08-12T03:56:22;15.32;;;7.68;;
51499;SDS011;39101;53.478;6.158;2023-08-12T03:58:47;14.50;;;8.57;;
51499;SDS011;39101;53.478;6.158;2023-08-12T04:01:13;13.80;;;7.53;;
51499;SDS011;39101;53.478;6.158;2023-08-12T04:03:39;12.30;;;8.35;;
51499;SDS011;39101;53.478;6.158;2023-08-12T04:06:04;12.38;;;8.10;;
51499;SDS011;39101;53.478;6.158;2023-08-12T04:08:30;16.80;;;9.40;;
51499;SDS011;39101;53.478;6.158;2023-08-12T04:10:57;12.55;;;7.85;;
51499;SDS011;39101;53.478;6.158;2023-08-12T04:13:23;11.55;;;7.25;;
51499;SDS011;39101;53.478;6.158;2023-08-12T04:15:49;13.73;;;8.20;;
51499;SDS011;39101;53.478;6.158;2023-08-12T04:18:16;12.80;;;8.07;;
51499;SDS011;39101;53.478;6.158;2023-08-12T04:20:42;12.57;;;7.88;;
51499;SDS011;39101;53.478;6.158;2023-08-12T04:23:07;13.18;;;7.53;;
51499;SDS011;39101;53.478;6.158;2023-08-12T04:25:33;11.45;;;7.80;;
51499;SDS011;39101;53.478;6.158;2023-08-12T04:27:59;15.25;;;8.20;;
51499;SDS011;39101;53.478;6.158;2023-08-12T04:30:24;16.30;;;10.15;;
51499;SDS011;39101;53.478;6.158;2023-08-12T04:32:51;12.70;;;7.70;;
51499;SDS011;39101;53.478;6.158;2023-08-12T04:35:17;13.45;;;7.90;;
51499;SDS011;39101;53.478;6.158;2023-08-12T04:37:42;12.30;;;7.80;;
51499;SDS011;39101;53.478;6.158;2023-08-12T04:40:08;12.88;;;8.90;;
51499;SDS011;39101;53.478;6.158;2023-08-12T04:42:34;14.85;;;8.65;;
51499;SDS011;39101;53.478;6.158;2023-08-12T04:45:00;18.17;;;8.95;;
51499;SDS011;39101;53.478;6.158;2023-08-12T04:47:25;12.77;;;9.02;;
51499;SDS011;39101;53.478;6.158;2023-08-12T04:49:51;14.40;;;9.40;;
51499;SDS011;39101;53.478;6.158;2023-08-12T04:52:17;14.55;;;8.75;;
51499;SDS011;39101;53.478;6.158;2023-08-12T04:54:44;12.73;;;8.57;;
51499;SDS011;39101;53.478;6.158;2023-08-12T04:57:09;13.50;;;8.98;;
51499;SDS011;39101;53.478;6.158;2023-08-12T04:59:35;12.27;;;9.27;;
51499;SDS011;39101;53.478;6.158;2023-08-12T05:02:00;12.13;;;8.68;;
51499;SDS011;39101;53.478;6.158;2023-08-12T05:04:26;21.33;;;9.75;;
51499;SDS011;39101;53.478;6.158;2023-08-12T05:06:52;12.98;;;8.20;;
51499;SDS011;39101;53.478;6.158;2023-08-12T05:09:17;13.75;;;9.10;;
51499;SDS011;39101;53.478;6.158;2023-08-12T05:11:43;14.75;;;9.48;;
51499;SDS011;39101;53.478;6.158;2023-08-12T05:14:09;12.20;;;8.45;;
51499;SDS011;39101;53.478;6.158;2023-08-12T05:16:34;17.88;;;9.25;;
51499;SDS011;39101;53.478;6.158;2023-08-12T05:19:00;14.55;;;8.60;;
51499;SDS011;39101;53.478;6.158;2023-08-12T05:21:25;14.07;;;9.02;;
51499;SDS011;39101;53.478;6.158;2023-08-12T05:23:51;14.27;;;9.80;;
51499;SDS011;39101;53.478;6.158;2023-08-12T05:26:17;18.73;;;9.90;;
51499;SDS011;39101;53.478;6.158;2023-08-12T05:28:43;11.35;;;8.20;;
51499;SDS011;39101;53.478;6.158;2023-08-12T05:31:08;13.85;;;9.55;;
51499;SDS011;39101;53.478;6.158;2023-08-12T05:33:34;15.18;;;9.13;;
51499;SDS011;39101;53.478;6.158;2023-08-12T05:36:00;14.32;;;9.60;;
51499;SDS011;39101;53.478;6.158;2023-08-12T05:38:25;15.07;;;9.43;;
51499;SDS011;39101;53.478;6.158;2023-08-12T05:40:51;14.23;;;9.93;;
51499;SDS011;39101;53.478;6.158;2023-08-12T05:43:17;11.70;;;9.30;;
51499;SDS011;39101;53.478;6.158;2023-08-12T05:45:43;9.98;;;8.10;;
51499;SDS011;39101;53.478;6.158;2023-08-12T05:48:08;11.80;;;9.02;;
51499;SDS011;39101;53.478;6.158;2023-08-12T05:50:34;13.82;;;10.00;;
51499;SDS011;39101;53.478;6.158;2023-08-12T05:53:00;18.25;;;9.27;;
51499;SDS011;39101;53.478;6.158;2023-08-12T05:55:25;12.05;;;9.10;;
51499;SDS011;39101;53.478;6.158;2023-08-12T05:57:51;13.25;;;9.55;;
51499;SDS011;39101;53.478;6.158;2023-08-12T06:00:16;15.55;;;8.80;;
51499;SDS011;39101;53.478;6.158;2023-08-12T06:02:42;13.68;;;9.52;;
51499;SDS011;39101;53.478;6.158;2023-08-12T06:05:08;12.80;;;8.85;;
51499;SDS011;39101;53.478;6.158;2023-08-12T06:07:34;15.30;;;8.82;;
51499;SDS011;39101;53.478;6.158;2023-08-12T06:10:00;13.38;;;9.00;;
51499;SDS011;39101;53.478;6.158;2023-08-12T06:12:26;13.63;;;9.10;;
51499;SDS011;39101;53.478;6.158;2023-08-12T06:14:51;12.93;;;9.40;;
51499;SDS011;39101;53.478;6.158;2023-08-12T06:17:17;14.95;;;8.68;;
51499;SDS011;39101;53.478;6.158;2023-08-12T06:19:43;12.75;;;8.90;;
51499;SDS011;39101;53.478;6.158;2023-08-12T06:22:08;11.07;;;9.50;;
51499;SDS011;39101;53.478;6.158;2023-08-12T06:24:34;12.98;;;8.70;;
51499;SDS011;39101;53.478;6.158;2023-08-12T06:26:59;14.57;;;9.25;;
51499;SDS011;39101;53.478;6.158;2023-08-12T06:29:25;14.35;;;8.45;;
51499;SDS011;39101;53.478;6.158;2023-08-12T06:31:51;13.30;;;8.30;;
51499;SDS011;39101;53.478;6.158;2023-08-12T06:34:18;13.82;;;9.13;;
51499;SDS011;39101;53.478;6.158;2023-08-12T06:36:43;15.07;;;9.20;;
51499;SDS011;39101;53.478;6.158;2023-08-12T06:39:09;21.27;;;9.75;;
51499;SDS011;39101;53.478;6.158;2023-08-12T06:41:35;11.93;;;8.95;;
51499;SDS011;39101;53.478;6.158;2023-08-12T06:44:00;15.82;;;9.90;;
51499;SDS011;39101;53.478;6.158;2023-08-12T06:46:26;17.63;;;9.52;;
51499;SDS011;39101;53.478;6.158;2023-08-12T06:48:53;14.10;;;8.63;;
51499;SDS011;39101;53.478;6.158;2023-08-12T06:51:19;13.65;;;9.20;;
51499;SDS011;39101;53.478;6.158;2023-08-12T06:53:44;13.43;;;8.88;;
51499;SDS011;39101;53.478;6.158;2023-08-12T06:56:10;16.13;;;8.68;;
51499;SDS011;39101;53.478;6.158;2023-08-12T06:58:36;15.13;;;9.10;;
51499;SDS011;39101;53.478;6.158;2023-08-12T07:01:01;17.13;;;9.45;;
51499;SDS011;39101;53.478;6.158;2023-08-12T07:03:27;16.75;;;9.23;;
51499;SDS011;39101;53.478;6.158;2023-08-12T07:05:53;11.65;;;8.90;;
51499;SDS011;39101;53.478;6.158;2023-08-12T07:08:19;17.45;;;9.75;;
51499;SDS011;39101;53.478;6.158;2023-08-12T07:10:45;15.70;;;9.93;;
51499;SDS011;39101;53.478;6.158;2023-08-12T07:13:11;14.48;;;9.98;;
51499;SDS011;39101;53.478;6.158;2023-08-12T07:15:36;16.35;;;9.75;;
51499;SDS011;39101;53.478;6.158;2023-08-12T07:18:02;15.07;;;9.27;;
51499;SDS011;39101;53.478;6.158;2023-08-12T07:20:28;13.10;;;9.40;;
51499;SDS011;39101;53.478;6.158;2023-08-12T07:22:53;16.70;;;10.05;;
51499;SDS011;39101;53.478;6.158;2023-08-12T07:25:19;14.43;;;9.70;;
51499;SDS011;39101;53.478;6.158;2023-08-12T07:27:45;15.23;;;9.30;;
51499;SDS011;39101;53.478;6.158;2023-08-12T07:30:10;15.57;;;10.15;;
51499;SDS011;39101;53.478;6.158;2023-08-12T07:32:37;16.48;;;10.68;;
51499;SDS011;39101;53.478;6.158;2023-08-12T07:35:04;16.48;;;9.30;;
51499;SDS011;39101;53.478;6.158;2023-08-12T07:37:33;16.50;;;9.95;;
51499;SDS011;39101;53.478;6.158;2023-08-12T07:39:59;16.33;;;10.82;;
51499;SDS011;39101;53.478;6.158;2023-08-12T07:42:25;18.48;;;9.60;;
51499;SDS011;39101;53.478;6.158;2023-08-12T07:44:51;17.23;;;11.48;;
51499;SDS011;39101;53.478;6.158;2023-08-12T07:47:17;17.50;;;10.52;;
51499;SDS011;39101;53.478;6.158;2023-08-12T07:49:43;17.73;;;11.38;;
51499;SDS011;39101;53.478;6.158;2023-08-12T07:52:08;18.23;;;11.23;;
51499;SDS011;39101;53.478;6.158;2023-08-12T07:54:35;16.42;;;10.40;;
51499;SDS011;39101;53.478;6.158;2023-08-12T07:57:00;21.10;;;12.18;;
51499;SDS011;39101;53.478;6.158;2023-08-12T07:59:26;17.63;;;11.45;;
51499;SDS011;39101;53.478;6.158;2023-08-12T08:01:52;20.27;;;12.48;;
51499;SDS011;39101;53.478;6.158;2023-08-12T08:04:17;20.20;;;11.77;;
51499;SDS011;39101;53.478;6.158;2023-08-12T08:06:43;18.95;;;12.25;;
51499;SDS011;39101;53.478;6.158;2023-08-12T08:09:09;20.48;;;13.10;;
51499;SDS011;39101;53.478;6.158;2023-08-12T08:11:35;19.83;;;11.82;;
51499;SDS011;39101;53.478;6.158;2023-08-12T08:14:01;19.60;;;12.50;;
51499;SDS011;39101;53.478;6.158;2023-08-12T08:16:27;20.60;;;13.40;;
51499;SDS011;39101;53.478;6.158;2023-08-12T08:18:52;18.65;;;12.57;;
51499;SDS011;39101;53.478;6.158;2023-08-12T08:21:18;22.58;;;12.35;;
51499;SDS011;39101;53.478;6.158;2023-08-12T08:23:44;17.45;;;12.32;;
51499;SDS011;39101;53.478;6.158;2023-08-12T08:26:10;19.55;;;12.93;;
51499;SDS011;39101;53.478;6.158;2023-08-12T08:28:37;21.25;;;12.65;;
51499;SDS011;39101;53.478;6.158;2023-08-12T08:31:03;20.73;;;12.40;;
51499;SDS011;39101;53.478;6.158;2023-08-12T08:33:29;20.38;;;13.70;;
51499;SDS011;39101;53.478;6.158;2023-08-12T08:35:54;25.45;;;15.15;;
51499;SDS011;39101;53.478;6.158;2023-08-12T08:38:20;24.40;;;13.95;;
51499;SDS011;39101;53.478;6.158;2023-08-12T08:40:46;21.42;;;14.55;;
51499;SDS011;39101;53.478;6.158;2023-08-12T08:43:15;19.25;;;13.10;;
51499;SDS011;39101;53.478;6.158;2023-08-12T08:45:45;21.27;;;14.10;;
51499;SDS011;39101;53.478;6.158;2023-08-12T08:48:12;25.50;;;15.35;;
51499;SDS011;39101;53.478;6.158;2023-08-12T08:50:38;21.38;;;14.18;;
51499;SDS011;39101;53.478;6.158;2023-08-12T08:53:06;20.30;;;13.52;;
51499;SDS011;39101;53.478;6.158;2023-08-12T08:55:31;22.85;;;14.20;;
51499;SDS011;39101;53.478;6.158;2023-08-12T08:57:57;18.08;;;12.82;;
51499;SDS011;39101;53.478;6.158;2023-08-12T09:00:24;30.65;;;16.65;;
51499;SDS011;39101;53.478;6.158;2023-08-12T09:02:50;22.90;;;15.07;;
51499;SDS011;39101;53.478;6.158;2023-08-12T09:05:17;21.67;;;14.00;;
51499;SDS011;39101;53.478;6.158;2023-08-12T09:07:45;20.50;;;14.45;;
51499;SDS011;39101;53.478;6.158;2023-08-12T09:10:12;25.15;;;15.07;;
51499;SDS011;39101;53.478;6.158;2023-08-12T09:12:38;25.27;;;15.27;;
51499;SDS011;39101;53.478;6.158;2023-08-12T09:15:05;22.52;;;15.45;;
51499;SDS011;39101;53.478;6.158;2023-08-12T09:17:31;23.33;;;15.80;;
51499;SDS011;39101;53.478;6.158;2023-08-12T09:19:57;23.38;;;16.77;;
51499;SDS011;39101;53.478;6.158;2023-08-12T09:22:24;26.10;;;16.75;;
51499;SDS011;39101;53.478;6.158;2023-08-12T09:24:55;24.20;;;16.38;;
51499;SDS011;39101;53.478;6.158;2023-08-12T09:27:21;26.88;;;18.17;;
51499;SDS011;39101;53.478;6.158;2023-08-12T09:29:47;23.40;;;16.73;;
51499;SDS011;39101;53.478;6.158;2023-08-12T09:32:13;29.38;;;18.80;;
51499;SDS011;39101;53.478;6.158;2023-08-12T09:34:46;21.00;;;16.98;;
51499;SDS011;39101;53.478;6.158;2023-08-12T09:37:16;25.20;;;17.67;;
51499;SDS011;39101;53.478;6.158;2023-08-12T09:42:12;24.88;;;16.65;;
51499;SDS011;39101;53.478;6.158;2023-08-12T09:44:38;29.33;;;18.90;;
51499;SDS011;39101;53.478;6.158;2023-08-12T09:47:05;28.35;;;19.05;;
51499;SDS011;39101;53.478;6.158;2023-08-12T09:49:31;24.92;;;17.85;;
51499;SDS011;39101;53.478;6.158;2023-08-12T09:51:57;23.85;;;16.83;;
51499;SDS011;39101;53.478;6.158;2023-08-12T09:54:25;25.90;;;16.13;;
51499;SDS011;39101;53.478;6.158;2023-08-12T09:56:55;25.48;;;16.92;;
51499;SDS011;39101;53.478;6.158;2023-08-12T09:59:24;23.35;;;16.77;;
51499;SDS011;39101;53.478;6.158;2023-08-12T10:01:52;25.73;;;17.17;;
51499;SDS011;39101;53.478;6.158;2023-08-12T10:04:22;28.98;;;17.92;;
51499;SDS011;39101;53.478;6.158;2023-08-12T10:06:49;28.58;;;18.05;;
51499;SDS011;39101;53.478;6.158;2023-08-12T10:09:15;27.08;;;17.83;;
51499;SDS011;39101;53.478;6.158;2023-08-12T10:11:42;25.20;;;16.67;;
51499;SDS011;39101;53.478;6.158;2023-08-12T10:14:10;30.13;;;17.05;;
51499;SDS011;39101;53.478;6.158;2023-08-12T10:16:37;28.77;;;16.63;;
51499;SDS011;39101;53.478;6.158;2023-08-12T10:19:04;29.13;;;16.58;;
51499;SDS011;39101;53.478;6.158;2023-08-12T10:21:31;25.55;;;15.60;;
51499;SDS011;39101;53.478;6.158;2023-08-12T10:23:57;20.23;;;13.15;;
51499;SDS011;39101;53.478;6.158;2023-08-12T10:26:24;19.80;;;13.00;;
51499;SDS011;39101;53.478;6.158;2023-08-12T10:28:50;24.52;;;16.67;;
51499;SDS011;39101;53.478;6.158;2023-08-12T10:31:16;24.60;;;15.57;;
51499;SDS011;39101;53.478;6.158;2023-08-12T10:33:44;29.10;;;18.42;;
51499;SDS011;39101;53.478;6.158;2023-08-12T10:36:13;32.63;;;19.77;;
51499;SDS011;39101;53.478;6.158;2023-08-12T10:38:40;33.65;;;20.88;;
51499;SDS011;39101;53.478;6.158;2023-08-12T10:41:16;29.80;;;19.08;;
51499;SDS011;39101;53.478;6.158;2023-08-12T10:43:55;27.40;;;17.30;;
51499;SDS011;39101;53.478;6.158;2023-08-12T10:46:32;14.73;;;9.43;;
51499;SDS011;39101;53.478;6.158;2023-08-12T10:49:01;11.30;;;4.85;;
51499;SDS011;39101;53.478;6.158;2023-08-12T10:51:50;12.95;;;4.40;;
51499;SDS011;39101;53.478;6.158;2023-08-12T11:04:52;8.45;;;1.90;;
51499;SDS011;39101;53.478;6.158;2023-08-12T11:13:02;9.43;;;2.85;;
51499;SDS011;39101;53.478;6.158;2023-08-12T11:15:37;10.48;;;2.60;;
51499;SDS011;39101;53.478;6.158;2023-08-12T11:18:08;9.25;;;2.70;;
51499;SDS011;39101;53.478;6.158;2023-08-12T11:20:35;9.20;;;2.40;;
51499;SDS011;39101;53.478;6.158;2023-08-12T11:23:03;11.27;;;2.95;;
51499;SDS011;39101;53.478;6.158;2023-08-12T11:25:30;7.82;;;2.40;;
51499;SDS011;39101;53.478;6.158;2023-08-12T11:27:56;7.65;;;2.65;;
51499;SDS011;39101;53.478;6.158;2023-08-12T11:30:23;6.07;;;2.30;;
51499;SDS011;39101;53.478;6.158;2023-08-12T11:32:49;8.70;;;2.85;;
51499;SDS011;39101;53.478;6.158;2023-08-12T11:35:17;14.15;;;3.08;;
51499;SDS011;39101;53.478;6.158;2023-08-12T11:37:45;11.27;;;2.72;;
51499;SDS011;39101;53.478;6.158;2023-08-12T11:40:12;9.00;;;2.70;;
51499;SDS011;39101;53.478;6.158;2023-08-12T11:42:40;8.32;;;2.58;;
51499;SDS011;39101;53.478;6.158;2023-08-12T11:45:07;9.50;;;2.58;;
51499;SDS011;39101;53.478;6.158;2023-08-12T11:47:34;9.15;;;2.40;;
51499;SDS011;39101;53.478;6.158;2023-08-12T11:50:03;7.65;;;2.78;;
51499;SDS011;39101;53.478;6.158;2023-08-12T11:52:38;14.25;;;3.63;;
51499;SDS011;39101;53.478;6.158;2023-08-12T11:55:05;10.40;;;2.60;;
51499;SDS011;39101;53.478;6.158;2023-08-12T11:57:32;7.20;;;2.45;;
51499;SDS011;39101;53.478;6.158;2023-08-12T12:00:03;11.50;;;3.47;;
51499;SDS011;39101;53.478;6.158;2023-08-12T12:02:37;7.40;;;2.35;;
51499;SDS011;39101;53.478;6.158;2023-08-12T12:05:14;8.80;;;2.60;;
51499;SDS011;39101;53.478;6.158;2023-08-12T12:07:40;13.93;;;2.45;;
51499;SDS011;39101;53.478;6.158;2023-08-12T12:10:06;8.00;;;2.42;;
51499;SDS011;39101;53.478;6.158;2023-08-12T12:12:33;8.10;;;2.60;;
51499;SDS011;39101;53.478;6.158;2023-08-12T12:15:00;15.20;;;3.17;;
51499;SDS011;39101;53.478;6.158;2023-08-12T12:17:27;8.93;;;2.90;;
51499;SDS011;39101;53.478;6.158;2023-08-12T12:19:54;8.23;;;2.20;;
51499;SDS011;39101;53.478;6.158;2023-08-12T12:22:31;10.20;;;2.50;;
51499;SDS011;39101;53.478;6.158;2023-08-12T12:25:05;10.07;;;2.67;;
51499;SDS011;39101;53.478;6.158;2023-08-12T12:27:38;7.70;;;2.45;;
51499;SDS011;39101;53.478;6.158;2023-08-12T12:30:07;9.93;;;2.05;;
51499;SDS011;39101;53.478;6.158;2023-08-12T12:32:35;7.25;;;2.30;;
51499;SDS011;39101;53.478;6.158;2023-08-12T12:35:01;7.65;;;2.70;;
51499;SDS011;39101;53.478;6.158;2023-08-12T12:37:28;11.90;;;2.90;;
51499;SDS011;39101;53.478;6.158;2023-08-12T12:39:54;11.30;;;2.70;;
51499;SDS011;39101;53.478;6.158;2023-08-12T12:42:20;10.23;;;3.13;;
51499;SDS011;39101;53.478;6.158;2023-08-12T12:44:45;10.98;;;3.10;;
51499;SDS011;39101;53.478;6.158;2023-08-12T12:47:11;9.68;;;3.10;;
51499;SDS011;39101;53.478;6.158;2023-08-12T12:49:40;13.65;;;3.17;;
51499;SDS011;39101;53.478;6.158;2023-08-12T12:52:08;12.13;;;3.72;;
51499;SDS011;39101;53.478;6.158;2023-08-12T12:54:34;11.68;;;3.15;;
51499;SDS011;39101;53.478;6.158;2023-08-12T12:57:00;11.40;;;3.47;;
51499;SDS011;39101;53.478;6.158;2023-08-12T12:59:26;12.60;;;4.32;;
51499;SDS011;39101;53.478;6.158;2023-08-12T13:01:52;12.23;;;3.60;;
51499;SDS011;39101;53.478;6.158;2023-08-12T13:04:18;9.82;;;2.95;;
51499;SDS011;39101;53.478;6.158;2023-08-12T13:06:44;10.43;;;3.08;;
51499;SDS011;39101;53.478;6.158;2023-08-12T13:09:10;15.75;;;3.40;;
51499;SDS011;39101;53.478;6.158;2023-08-12T13:11:35;13.15;;;3.85;;
51499;SDS011;39101;53.478;6.158;2023-08-12T13:14:01;11.77;;;3.38;;
51499;SDS011;39101;53.478;6.158;2023-08-12T13:16:27;10.95;;;3.53;;
51499;SDS011;39101;53.478;6.158;2023-08-12T13:18:53;13.55;;;3.05;;
51499;SDS011;39101;53.478;6.158;2023-08-12T13:21:19;9.68;;;3.30;;
51499;SDS011;39101;53.478;6.158;2023-08-12T13:23:45;10.50;;;3.58;;
51499;SDS011;39101;53.478;6.158;2023-08-12T13:26:10;16.90;;;4.25;;
51499;SDS011;39101;53.478;6.158;2023-08-12T13:28:36;19.98;;;5.70;;
51499;SDS011;39101;53.478;6.158;2023-08-12T13:31:02;14.52;;;3.47;;
51499;SDS011;39101;53.478;6.158;2023-08-12T13:33:27;11.35;;;3.70;;
51499;SDS011;39101;53.478;6.158;2023-08-12T13:35:53;12.75;;;3.20;;
51499;SDS011;39101;53.478;6.158;2023-08-12T13:38:19;10.07;;;2.90;;
51499;SDS011;39101;53.478;6.158;2023-08-12T13:40:45;9.90;;;3.20;;
51499;SDS011;39101;53.478;6.158;2023-08-12T13:43:11;11.88;;;3.15;;
51499;SDS011;39101;53.478;6.158;2023-08-12T13:45:36;9.00;;;2.90;;
51499;SDS011;39101;53.478;6.158;2023-08-12T13:48:02;10.80;;;3.10;;
51499;SDS011;39101;53.478;6.158;2023-08-12T13:50:28;15.07;;;3.78;;
51499;SDS011;39101;53.478;6.158;2023-08-12T13:52:53;12.13;;;3.42;;
51499;SDS011;39101;53.478;6.158;2023-08-12T13:55:19;14.25;;;3.65;;
51499;SDS011;39101;53.478;6.158;2023-08-12T13:57:45;13.70;;;3.55;;
51499;SDS011;39101;53.478;6.158;2023-08-12T14:00:11;8.40;;;3.50;;
51499;SDS011;39101;53.478;6.158;2023-08-12T14:02:38;9.68;;;2.30;;
51499;SDS011;39101;53.478;6.158;2023-08-12T14:05:05;14.30;;;3.15;;
51499;SDS011;39101;53.478;6.158;2023-08-12T14:07:31;9.32;;;2.67;;
51499;SDS011;39101;53.478;6.158;2023-08-12T14:09:58;14.23;;;2.92;;
51499;SDS011;39101;53.478;6.158;2023-08-12T14:12:24;8.35;;;3.13;;
51499;SDS011;39101;53.478;6.158;2023-08-12T14:14:50;11.35;;;2.67;;
51499;SDS011;39101;53.478;6.158;2023-08-12T14:17:16;9.35;;;2.65;;
51499;SDS011;39101;53.478;6.158;2023-08-12T14:19:43;10.07;;;2.47;;
51499;SDS011;39101;53.478;6.158;2023-08-12T14:22:12;14.87;;;2.90;;
51499;SDS011;39101;53.478;6.158;2023-08-12T14:24:38;13.82;;;3.63;;
51499;SDS011;39101;53.478;6.158;2023-08-12T14:27:04;10.38;;;3.03;;
51499;SDS011;39101;53.478;6.158;2023-08-12T14:29:30;11.45;;;2.70;;
51499;SDS011;39101;53.478;6.158;2023-08-12T14:31:56;8.73;;;2.13;;
51499;SDS011;39101;53.478;6.158;2023-08-12T14:34:22;10.88;;;2.88;;
51499;SDS011;39101;53.478;6.158;2023-08-12T14:36:48;11.45;;;2.95;;
51499;SDS011;39101;53.478;6.158;2023-08-12T14:39:13;13.27;;;3.10;;
51499;SDS011;39101;53.478;6.158;2023-08-12T14:41:39;9.82;;;2.80;;
51499;SDS011;39101;53.478;6.158;2023-08-12T14:44:05;10.13;;;3.05;;
51499;SDS011;39101;53.478;6.158;2023-08-12T14:46:30;11.55;;;2.65;;
51499;SDS011;39101;53.478;6.158;2023-08-12T14:48:56;11.90;;;3.67;;
51499;SDS011;39101;53.478;6.158;2023-08-12T14:51:22;13.20;;;2.90;;
51499;SDS011;39101;53.478;6.158;2023-08-12T14:53:47;10.68;;;3.05;;
51499;SDS011;39101;53.478;6.158;2023-08-12T14:56:14;11.80;;;3.00;;